Time;durP1;ratioP1;P1;durP2;ratioP2;P2;SDS_P1;SDS_P2;PMS_P1;PMS_P2;Temp;Humidity;BMP_temperature;BMP_pressure;BME280_temperature;BME280_humidity;BME280_pressure;Samples;Min_cycle;Max_cycle;Signal;HPM_P1;HPM_P2
2020/12/07 00:00:36;;;;;;;3.47;2.47;;;6.60;86.50;;;;;;5071086;28;20048;-76
2020/12/07 00:03:02;;;;;;;5.10;3.65;;;6.60;86.60;;;;;;5072685;28;20103;-76
2020/12/07 00:05:29;;;;;;;5.13;2.78;;;6.60;86.60;;;;;;5081394;28;20086;-76
2020/12/07 00:07:55;;;;;;;3.50;2.65;;;6.60;86.60;;;;;;5074630;28;20016;-76
2020/12/07 00:10:20;;;;;;;5.45;3.83;;;6.60;86.60;;;;;;5092878;28;20487;-76
2020/12/07 00:12:46;;;;;;;5.05;3.15;;;6.60;86.70;;;;;;5092619;28;20047;-76
2020/12/07 00:15:12;;;;;;;4.65;3.35;;;6.60;86.60;;;;;;5091480;28;20035;-76
2020/12/07 00:17:38;;;;;;;5.07;3.65;;;6.60;86.60;;;;;;5092908;28;20032;-76
2020/12/07 00:20:05;;;;;;;4.90;2.97;;;6.60;86.60;;;;;;5083589;28;20504;-77
2020/12/07 00:22:31;;;;;;;3.63;2.70;;;6.60;86.70;;;;;;5072873;28;20386;-76
2020/12/07 00:24:58;;;;;;;5.95;3.45;;;6.60;86.70;;;;;;5072548;28;20166;-76
2020/12/07 00:27:30;;;;;;;4.50;2.70;;;6.60;86.80;;;;;;5072406;28;20033;-75
2020/12/07 00:29:56;;;;;;;4.47;3.22;;;6.60;86.80;;;;;;5070631;28;20044;-76
2020/12/07 00:32:23;;;;;;;3.65;2.30;;;6.60;86.80;;;;;;5072067;28;20041;-76
2020/12/07 00:34:50;;;;;;;2.83;2.00;;;6.60;86.80;;;;;;5072199;28;20045;-76
2020/12/07 00:37:18;;;;;;;4.50;2.42;;;6.60;86.90;;;;;;5072553;28;20055;-75
2020/12/07 00:39:44;;;;;;;5.15;3.28;;;6.60;86.90;;;;;;5072284;28;20056;-76
2020/12/07 00:42:09;;;;;;;3.42;2.22;;;6.60;86.90;;;;;;5072384;28;20056;-76
2020/12/07 00:44:38;;;;;;;4.00;2.58;;;6.60;86.80;;;;;;5070692;28;20377;-76
2020/12/07 00:47:05;;;;;;;3.55;2.38;;;6.70;86.90;;;;;;5072262;28;20075;-75
2020/12/07 00:49:31;;;;;;;2.92;1.95;;;6.70;86.80;;;;;;5072160;28;20025;-76
2020/12/07 00:51:57;;;;;;;3.20;2.30;;;6.70;86.70;;;;;;5072447;28;20106;-75
2020/12/07 00:54:23;;;;;;;2.85;2.10;;;6.70;86.70;;;;;;5071873;28;20470;-76
2020/12/07 00:56:53;;;;;;;2.88;2.38;;;6.70;86.80;;;;;;5071995;28;20036;-76
2020/12/07 00:59:19;;;;;;;3.97;2.42;;;6.70;86.80;;;;;;5070364;28;20439;-76
2020/12/07 01:01:45;;;;;;;4.55;2.63;;;6.70;86.80;;;;;;5071869;28;20033;-76
2020/12/07 01:04:11;;;;;;;3.30;2.20;;;6.70;86.90;;;;;;5071933;28;20033;-75
2020/12/07 01:06:36;;;;;;;3.55;2.65;;;6.70;87.00;;;;;;5072447;28;20068;-75
2020/12/07 01:09:03;;;;;;;3.45;2.40;;;6.70;87.00;;;;;;5053098;28;20028;-76
2020/12/07 01:11:28;;;;;;;3.63;2.30;;;6.70;87.00;;;;;;5071992;28;20054;-76
2020/12/07 01:13:54;;;;;;;3.35;2.50;;;6.80;86.90;;;;;;5070456;28;20124;-76
2020/12/07 01:16:23;;;;;;;2.67;1.67;;;6.80;86.90;;;;;;5071704;28;20056;-76
2020/12/07 01:18:50;;;;;;;3.45;1.98;;;6.80;86.80;;;;;;5072917;28;20028;-76
2020/12/07 01:21:16;;;;;;;2.92;2.50;;;6.90;86.70;;;;;;5075582;28;20071;-75
2020/12/07 01:23:44;;;;;;;4.03;2.47;;;6.90;86.60;;;;;;5075130;28;20171;-76
2020/12/07 01:26:11;;;;;;;4.38;2.83;;;6.90;86.60;;;;;;5075520;28;20028;-76
2020/12/07 01:28:37;;;;;;;3.58;2.50;;;6.90;86.60;;;;;;5075046;28;20033;-75
2020/12/07 01:31:02;;;;;;;3.33;1.85;;;6.90;86.60;;;;;;5073930;28;20058;-76
2020/12/07 01:33:28;;;;;;;1.90;1.55;;;6.90;86.60;;;;;;5083832;28;20050;-75
2020/12/07 01:35:54;;;;;;;2.50;1.90;;;6.90;86.70;;;;;;5095983;28;20038;-76
2020/12/07 01:38:20;;;;;;;3.13;2.08;;;6.90;86.70;;;;;;5095781;28;20024;-76
2020/12/07 01:40:45;;;;;;;1.65;1.20;;;6.90;86.70;;;;;;5076882;28;20122;-76
2020/12/07 01:43:11;;;;;;;3.85;2.20;;;6.90;86.70;;;;;;5095688;28;20138;-76
2020/12/07 01:45:36;;;;;;;2.83;2.10;;;6.90;86.80;;;;;;5093852;28;20451;-76
2020/12/07 01:48:02;;;;;;;2.28;1.67;;;6.90;86.90;;;;;;5095521;28;20040;-76
2020/12/07 01:50:28;;;;;;;2.88;2.00;;;6.90;86.90;;;;;;5095184;28;20461;-76
2020/12/07 01:52:54;;;;;;;2.53;1.92;;;6.90;86.90;;;;;;5095273;28;20040;-76
2020/12/07 01:55:20;;;;;;;2.83;2.45;;;6.90;86.90;;;;;;5095166;28;20116;-76
2020/12/07 01:57:45;;;;;;;2.30;1.55;;;6.80;86.90;;;;;;5093300;28;20374;-76
2020/12/07 02:00:11;;;;;;;2.17;1.92;;;6.80;87.00;;;;;;5073223;28;20505;-75
2020/12/07 02:02:37;;;;;;;2.40;1.85;;;6.80;87.00;;;;;;5075058;28;20029;-76
2020/12/07 02:05:03;;;;;;;3.10;2.00;;;6.80;87.00;;;;;;5074718;28;20111;-76
2020/12/07 02:07:28;;;;;;;2.22;1.58;;;6.80;86.90;;;;;;5083769;28;20032;-76
2020/12/07 02:09:54;;;;;;;2.65;1.90;;;6.80;86.90;;;;;;5094972;28;20036;-75
2020/12/07 02:12:19;;;;;;;3.47;2.58;;;6.80;87.00;;;;;;5076368;28;20044;-76
2020/12/07 02:14:45;;;;;;;2.78;1.67;;;6.80;87.00;;;;;;5093674;28;20032;-76
2020/12/07 02:17:10;;;;;;;3.08;1.90;;;6.80;87.00;;;;;;5094911;28;20044;-76
2020/12/07 02:19:36;;;;;;;2.65;2.05;;;6.80;87.00;;;;;;5094809;28;20029;-76
2020/12/07 02:22:02;;;;;;;1.92;1.65;;;6.80;87.10;;;;;;5094971;28;20422;-76
2020/12/07 02:24:27;;;;;;;2.47;2.20;;;6.80;87.10;;;;;;5087892;28;20087;-76
2020/12/07 02:26:53;;;;;;;3.58;2.53;;;6.80;87.00;;;;;;5072893;28;20504;-76
2020/12/07 02:29:18;;;;;;;2.53;2.00;;;6.80;87.10;;;;;;5072742;28;20083;-76
2020/12/07 02:31:44;;;;;;;3.28;2.17;;;6.80;87.00;;;;;;5074311;28;20064;-76
2020/12/07 02:34:10;;;;;;;3.75;2.85;;;6.80;87.70;;;;;;5092196;28;20363;-77
2020/12/07 02:36:35;;;;;;;3.25;2.40;;;6.80;87.10;;;;;;5094741;28;20036;-76
2020/12/07 02:39:01;;;;;;;4.15;3.00;;;6.80;87.10;;;;;;5094541;28;20436;-76
2020/12/07 02:41:27;;;;;;;2.60;2.08;;;6.70;87.20;;;;;;5094723;28;20039;-75
2020/12/07 02:43:52;;;;;;;3.40;2.22;;;6.70;87.20;;;;;;5092628;28;20381;-76
2020/12/07 02:46:18;;;;;;;3.42;2.45;;;6.70;87.20;;;;;;5076485;28;20032;-76
2020/12/07 02:48:43;;;;;;;3.97;2.55;;;6.70;87.30;;;;;;5080122;28;20377;-75
2020/12/07 02:51:09;;;;;;;4.15;2.42;;;6.60;87.50;;;;;;5074184;28;20075;-75
2020/12/07 02:53:35;;;;;;;3.35;2.20;;;6.60;87.50;;;;;;5073963;28;20071;-76
2020/12/07 02:56:00;;;;;;;2.65;2.03;;;6.60;87.40;;;;;;5074303;28;20033;-76
2020/12/07 02:58:26;;;;;;;2.55;1.88;;;6.70;87.40;;;;;;5073979;28;20440;-75
2020/12/07 03:00:51;;;;;;;3.08;2.33;;;6.70;87.30;;;;;;5072115;28;20068;-76
2020/12/07 03:03:17;;;;;;;3.50;1.92;;;6.70;87.20;;;;;;5074111;28;20059;-75
2020/12/07 03:05:42;;;;;;;2.75;1.95;;;6.60;87.20;;;;;;5073865;28;20063;-75
2020/12/07 03:08:08;;;;;;;4.03;2.15;;;6.60;87.30;;;;;;5074181;28;20037;-76
2020/12/07 03:10:34;;;;;;;4.47;2.90;;;6.60;87.30;;;;;;5073740;28;20486;-76
2020/12/07 03:12:59;;;;;;;3.05;2.25;;;6.60;87.40;;;;;;5073933;28;20036;-76
2020/12/07 03:15:25;;;;;;;4.55;3.70;;;6.60;87.30;;;;;;5072249;28;20025;-77
2020/12/07 03:17:50;;;;;;;3.67;2.53;;;6.60;87.30;;;;;;5073635;28;20048;-77
2020/12/07 03:20:16;;;;;;;4.18;2.88;;;6.60;87.40;;;;;;5073513;28;20025;-77
2020/12/07 03:22:42;;;;;;;2.78;2.45;;;6.60;87.50;;;;;;5073668;28;20040;-76
2020/12/07 03:25:07;;;;;;;4.03;2.67;;;6.50;87.50;;;;;;5073111;28;20082;-76
2020/12/07 03:27:33;;;;;;;4.05;2.15;;;6.60;87.50;;;;;;5055294;28;20032;-77
2020/12/07 03:29:58;;;;;;;3.78;2.40;;;6.60;87.40;;;;;;5071805;28;20087;-77
2020/12/07 03:32:24;;;;;;;3.35;2.13;;;6.60;87.40;;;;;;5055401;28;20060;-76
2020/12/07 03:34:50;;;;;;;3.28;2.35;;;6.60;87.30;;;;;;5073544;28;20035;-77
2020/12/07 03:37:15;;;;;;;2.88;2.22;;;6.60;87.30;;;;;;5073075;28;20463;-76
2020/12/07 03:39:41;;;;;;;4.43;3.03;;;6.60;87.30;;;;;;5073330;28;20328;-76
2020/12/07 03:42:06;;;;;;;2.92;2.40;;;6.60;87.30;;;;;;5073162;28;20090;-77
2020/12/07 03:44:32;;;;;;;4.90;3.22;;;6.60;87.30;;;;;;5053776;28;20099;-76
2020/12/07 03:46:57;;;;;;;3.97;2.70;;;6.60;87.30;;;;;;5055120;28;20029;-76
2020/12/07 03:49:23;;;;;;;3.33;1.85;;;6.60;87.40;;;;;;5073137;28;20033;-76
2020/12/07 03:51:48;;;;;;;2.97;2.05;;;6.70;87.40;;;;;;5054676;28;20512;-77
2020/12/07 03:54:14;;;;;;;3.90;2.30;;;6.70;87.40;;;;;;5072546;28;20028;-77
2020/12/07 03:56:40;;;;;;;2.78;1.92;;;6.70;87.40;;;;;;5073005;28;20481;-76
2020/12/07 03:59:05;;;;;;;3.53;2.22;;;6.70;87.30;;;;;;5071221;28;20139;-76
2020/12/07 04:01:31;;;;;;;4.30;2.55;;;6.70;87.30;;;;;;5073213;28;20033;-76
2020/12/07 04:04:04;;;;;;;2.53;1.85;;;6.80;88.00;;;;;;5072627;28;20067;-76
2020/12/07 04:06:34;;;;;;;2.55;1.65;;;6.80;87.30;;;;;;5072927;28;20124;-77
2020/12/07 04:08:59;;;;;;;3.83;2.40;;;6.80;87.30;;;;;;5072970;28;20051;-77
2020/12/07 04:11:25;;;;;;;3.35;2.22;;;6.80;87.20;;;;;;5072731;28;20037;-77
2020/12/07 04:13:50;;;;;;;2.00;1.63;;;6.80;87.20;;;;;;5053419;28;20028;-77
2020/12/07 04:16:16;;;;;;;2.92;2.20;;;6.80;87.20;;;;;;5072963;28;20043;-75
2020/12/07 04:18:42;;;;;;;2.83;2.00;;;6.80;87.20;;;;;;5072688;28;20474;-76
2020/12/07 04:21:07;;;;;;;3.35;1.85;;;6.90;87.20;;;;;;5072654;28;20040;-76
2020/12/07 04:23:33;;;;;;;3.13;2.20;;;6.90;87.10;;;;;;5072750;28;20041;-76
2020/12/07 04:25:59;;;;;;;2.70;2.03;;;6.90;87.10;;;;;;5072808;28;20032;-77
2020/12/07 04:28:25;;;;;;;2.08;1.55;;;6.90;87.20;;;;;;5072464;28;20119;-77
2020/12/07 04:30:51;;;;;;;3.95;2.65;;;6.90;87.20;;;;;;5071120;28;20371;-77
2020/12/07 04:33:18;;;;;;;2.67;1.85;;;7.00;87.30;;;;;;5072520;28;20048;-76
2020/12/07 04:35:43;;;;;;;6.35;4.03;;;7.00;87.40;;;;;;5072658;28;20032;-77
2020/12/07 04:38:09;;;;;;;3.60;2.55;;;6.90;87.30;;;;;;5072696;28;20083;-76
2020/12/07 04:40:35;;;;;;;3.60;2.60;;;6.90;87.40;;;;;;5072286;28;20052;-75
2020/12/07 04:43:02;;;;;;;4.05;2.58;;;6.90;87.50;;;;;;5072814;28;20058;-76
2020/12/07 04:45:28;;;;;;;4.50;2.85;;;6.90;87.50;;;;;;5052729;28;20029;-76
2020/12/07 04:47:54;;;;;;;2.83;2.33;;;6.80;87.60;;;;;;5072489;28;20039;-76
2020/12/07 04:50:21;;;;;;;4.45;2.53;;;6.80;87.60;;;;;;5072377;28;20051;-76
2020/12/07 04:52:49;;;;;;;2.95;1.90;;;6.90;87.60;;;;;;5072144;28;20037;-76
2020/12/07 04:55:15;;;;;;;2.58;2.05;;;6.90;87.60;;;;;;5086583;28;20040;-75
2020/12/07 04:57:43;;;;;;;2.83;2.08;;;6.90;87.50;;;;;;5090236;28;20139;-75
2020/12/07 05:00:08;;;;;;;2.00;1.67;;;6.90;87.60;;;;;;5083739;28;20107;-75
2020/12/07 05:02:37;;;;;;;3.20;2.10;;;6.90;87.60;;;;;;5091861;28;20458;-76
2020/12/07 05:05:05;;;;;;;2.75;2.00;;;6.90;87.60;;;;;;5076932;28;20086;-76
2020/12/07 05:07:34;;;;;;;2.45;1.95;;;6.80;87.50;;;;;;5077516;28;20179;-76
2020/12/07 05:10:09;;;;;;;3.53;2.42;;;6.80;87.60;;;;;;5075891;28;20051;-76
2020/12/07 05:12:40;;;;;;;3.72;3.13;;;6.80;87.60;;;;;;5078401;28;20040;-76
2020/12/07 05:15:10;;;;;;;1.80;1.60;;;6.80;87.70;;;;;;5093119;28;20035;-76
2020/12/07 05:17:37;;;;;;;3.60;2.33;;;6.80;87.70;;;;;;5093018;28;20075;-78
2020/12/07 05:20:05;;;;;;;2.50;1.90;;;6.80;87.60;;;;;;5095927;28;20555;-75
2020/12/07 05:22:31;;;;;;;2.30;2.10;;;6.80;87.70;;;;;;5088637;28;20062;-76
2020/12/07 05:24:56;;;;;;;2.42;2.22;;;6.80;87.80;;;;;;5081342;28;20032;-77
2020/12/07 05:27:26;;;;;;;2.67;2.35;;;6.80;87.70;;;;;;5083144;28;20385;-77
2020/12/07 05:30:08;;;;;;;2.60;2.40;;;6.80;87.80;;;;;;5075587;28;20040;-77
2020/12/07 05:32:36;;;;;;;2.83;2.30;;;6.70;87.80;;;;;;5095738;28;20127;-77
2020/12/07 05:35:03;;;;;;;3.38;2.28;;;6.70;87.80;;;;;;5095732;28;20059;-77
2020/12/07 05:37:37;;;;;;;3.00;2.17;;;6.70;87.90;;;;;;5095576;28;20032;-77
2020/12/07 05:40:08;;;;;;;3.10;2.20;;;6.70;87.80;;;;;;5076030;28;20032;-76
2020/12/07 05:42:34;;;;;;;3.28;2.10;;;6.70;87.80;;;;;;5079637;28;20036;-77
2020/12/07 05:45:02;;;;;;;3.33;2.35;;;6.70;87.80;;;;;;5094001;28;20043;-77
2020/12/07 05:47:31;;;;;;;3.20;2.20;;;6.70;87.80;;;;;;5092542;28;20071;-77
2020/12/07 05:49:58;;;;;;;3.90;2.50;;;6.80;87.80;;;;;;5057201;28;20043;-77
2020/12/07 05:52:46;;;;;;;3.85;2.72;;;6.70;87.70;;;;;;5093661;28;20424;-76
2020/12/07 05:55:14;;;;;;;2.28;1.85;;;6.70;87.70;;;;;;5084316;28;20445;-77
2020/12/07 05:58:07;;;;;;;2.63;1.60;;;6.70;87.80;;;;;;5095447;28;20504;-77
2020/12/07 06:00:35;;;;;;;2.83;2.35;;;6.80;87.70;;;;;;5087839;28;20060;-76
2020/12/07 06:03:02;;;;;;;3.40;2.42;;;6.80;87.60;;;;;;5083938;28;20035;-77
2020/12/07 06:05:28;;;;;;;3.15;2.13;;;6.80;87.60;;;;;;5085628;28;20150;-77
2020/12/07 06:08:22;;;;;;;3.40;2.67;;;6.80;87.60;;;;;;5059897;28;20075;-77
2020/12/07 06:10:59;;;;;;;4.35;3.05;;;6.90;87.60;;;;;;5076008;28;20040;-77
2020/12/07 06:13:29;;;;;;;3.00;2.13;;;6.90;87.60;;;;;;5074911;28;20033;-77
2020/12/07 06:15:55;;;;;;;2.95;2.53;;;6.90;87.70;;;;;;5077056;28;20029;-77
2020/12/07 06:18:21;;;;;;;3.83;2.45;;;6.90;87.60;;;;;;5081972;28;20040;-79
2020/12/07 06:20:46;;;;;;;2.42;2.10;;;6.90;87.60;;;;;;5056740;28;20032;-78
2020/12/07 06:23:17;;;;;;;2.80;1.65;;;6.90;87.70;;;;;;5083029;28;20043;-74
2020/12/07 06:25:45;;;;;;;3.08;2.30;;;6.90;87.70;;;;;;5067155;28;20036;-74
2020/12/07 06:28:11;;;;;;;3.90;2.10;;;6.90;87.80;;;;;;5076014;28;20043;-74
2020/12/07 06:30:37;;;;;;;3.30;2.10;;;6.90;87.70;;;;;;5088724;28;20412;-75
2020/12/07 06:33:14;;;;;;;3.25;2.72;;;6.90;87.70;;;;;;5076561;28;20059;-73
2020/12/07 06:35:41;;;;;;;2.53;2.03;;;6.90;87.80;;;;;;5093226;28;20050;-74
2020/12/07 06:38:07;;;;;;;2.75;2.25;;;6.80;87.90;;;;;;5093993;28;20391;-76
2020/12/07 06:40:35;;;;;;;3.55;3.03;;;6.90;87.90;;;;;;5093717;28;20139;-74
2020/12/07 06:43:15;;;;;;;2.22;1.80;;;6.90;87.90;;;;;;5086061;28;20062;-74
2020/12/07 06:45:41;;;;;;;2.13;1.70;;;6.90;88.50;;;;;;5059163;28;20036;-75
2020/12/07 06:48:19;;;;;;;3.45;2.60;;;6.90;87.90;;;;;;5084980;28;20111;-74
2020/12/07 06:50:46;;;;;;;3.70;2.58;;;6.90;87.90;;;;;;5093445;28;20111;-76
2020/12/07 06:55:57;;;;;;;3.25;2.95;;;7.00;87.80;;;;;;5088429;28;20028;-74
2020/12/07 06:58:39;;;;;;;4.53;3.00;;;6.90;87.70;;;;;;5075448;28;20096;-76
2020/12/07 07:01:10;;;;;;;3.28;2.65;;;6.90;87.80;;;;;;5075963;28;20058;-77
2020/12/07 07:03:45;;;;;;;3.33;2.40;;;6.90;87.90;;;;;;5093064;28;20047;-76
2020/12/07 07:06:10;;;;;;;3.38;2.63;;;6.90;87.90;;;;;;5092013;28;20028;-78
2020/12/07 07:08:37;;;;;;;3.17;2.33;;;6.90;87.90;;;;;;5062371;28;20047;-78
2020/12/07 07:11:08;;;;;;;3.47;2.67;;;6.90;87.90;;;;;;5076799;28;20032;-79
2020/12/07 07:13:33;;;;;;;2.95;2.47;;;7.00;88.00;;;;;;5090002;28;20042;-77
2020/12/07 07:16:00;;;;;;;4.00;2.70;;;6.90;88.00;;;;;;5076347;28;20035;-79
2020/12/07 07:18:26;;;;;;;3.92;2.35;;;7.00;87.90;;;;;;5078606;28;20042;-79
2020/12/07 07:20:51;;;;;;;4.18;2.78;;;7.00;87.90;;;;;;5093041;28;20410;-79
2020/12/07 07:23:18;;;;;;;3.08;2.45;;;7.00;87.80;;;;;;5092217;28;20031;-78
2020/12/07 07:25:54;;;;;;;2.55;1.85;;;7.00;87.90;;;;;;5081978;28;20050;-78
2020/12/07 07:28:20;;;;;;;2.65;2.10;;;7.00;87.80;;;;;;5083283;28;20032;-78
2020/12/07 07:30:46;;;;;;;3.03;2.10;;;7.00;88.00;;;;;;5080291;28;20040;-79
2020/12/07 07:33:12;;;;;;;2.55;2.28;;;7.00;88.00;;;;;;5081927;28;20110;-80
2020/12/07 07:35:38;;;;;;;2.63;1.88;;;7.00;88.00;;;;;;5042541;28;20470;-79
2020/12/07 07:38:04;;;;;;;2.58;2.05;;;7.00;87.80;;;;;;5054306;28;20040;-83
2020/12/07 07:40:30;;;;;;;2.55;1.88;;;7.00;87.90;;;;;;5037214;28;20037;-80
2020/12/07 07:43:02;;;;;;;3.13;2.10;;;7.10;87.90;;;;;;5054818;28;20143;-82
2020/12/07 07:45:36;;;;;;;3.17;2.20;;;7.10;87.90;;;;;;5044114;28;20038;-75
2020/12/07 08:03:16;;;;;;;3.10;2.00;;;6.90;88.10;;;;;;4948521;28;20043;-76
2020/12/07 08:16:22;;;;;;;2.92;2.17;;;7.00;88.00;;;;;;4958914;28;20050;-75
2020/12/07 08:18:54;;;;;;;3.25;2.78;;;7.00;88.30;;;;;;4950681;28;20046;-76
2020/12/07 08:21:28;;;;;;;3.10;2.20;;;7.00;88.10;;;;;;4952399;28;20103;-75
2020/12/07 08:23:59;;;;;;;2.83;2.47;;;7.00;88.00;;;;;;4960473;28;20486;-75
2020/12/07 08:26:25;;;;;;;2.97;2.28;;;7.10;88.00;;;;;;4952187;28;20122;-75
2020/12/07 08:28:53;;;;;;;3.17;2.10;;;7.10;87.80;;;;;;4952566;28;20516;-76
2020/12/07 08:31:21;;;;;;;1.92;1.73;;;7.10;87.80;;;;;;5036399;28;20379;-76
2020/12/07 08:33:54;;;;;;;3.35;2.33;;;7.10;87.90;;;;;;5063276;28;20072;-76
2020/12/07 08:36:20;;;;;;;2.65;2.17;;;7.10;87.90;;;;;;5058441;28;20037;-74
2020/12/07 08:38:46;;;;;;;2.53;2.00;;;7.10;88.00;;;;;;5055565;28;20493;-75
2020/12/07 08:41:20;;;;;;;3.05;2.00;;;7.10;88.00;;;;;;5065232;28;20471;-76
2020/12/07 08:43:51;;;;;;;2.70;1.98;;;7.10;88.00;;;;;;5069686;28;20025;-76
2020/12/07 08:46:21;;;;;;;3.05;2.30;;;7.00;88.00;;;;;;5066871;28;20049;-78
2020/12/07 08:48:47;;;;;;;3.60;2.15;;;7.00;88.00;;;;;;5070174;28;20029;-77
2020/12/07 08:51:13;;;;;;;3.53;3.10;;;7.00;88.10;;;;;;5055694;28;20040;-76
2020/12/07 08:53:40;;;;;;;3.50;2.25;;;7.00;88.00;;;;;;5072824;28;20131;-78
2020/12/07 08:56:07;;;;;;;3.22;2.13;;;7.00;88.00;;;;;;5062770;28;20093;-76
2020/12/07 08:58:33;;;;;;;3.03;2.05;;;7.00;88.10;;;;;;5073738;28;20055;-74
2020/12/07 09:01:00;;;;;;;2.03;1.85;;;7.00;88.00;;;;;;5065408;28;20458;-75
2020/12/07 09:03:26;;;;;;;2.85;2.05;;;7.00;88.10;;;;;;5053239;28;20128;-76
2020/12/07 09:05:52;;;;;;;4.43;3.35;;;7.00;88.10;;;;;;5074336;28;20103;-77
2020/12/07 09:08:17;;;;;;;2.88;2.47;;;6.90;88.10;;;;;;5070475;28;20020;-78
2020/12/07 09:10:43;;;;;;;3.67;2.00;;;7.00;88.10;;;;;;5066859;28;20393;-77
2020/12/07 09:13:09;;;;;;;4.75;3.10;;;7.00;88.10;;;;;;5073090;28;20040;-79
2020/12/07 09:15:34;;;;;;;3.88;2.30;;;7.00;88.00;;;;;;5072007;28;20120;-76
2020/12/07 09:18:00;;;;;;;3.17;2.22;;;7.00;88.00;;;;;;5073883;28;20041;-77
2020/12/07 09:20:26;;;;;;;3.42;2.70;;;7.00;88.00;;;;;;5072268;28;20413;-77
2020/12/07 09:22:51;;;;;;;2.58;2.00;;;7.00;88.00;;;;;;5062579;28;20085;-77
2020/12/07 09:25:17;;;;;;;2.53;2.17;;;7.10;87.90;;;;;;5060321;28;20040;-78
2020/12/07 09:27:43;;;;;;;3.80;2.40;;;7.00;88.00;;;;;;5072862;28;20111;-76
2020/12/07 09:30:08;;;;;;;2.33;2.13;;;7.00;88.00;;;;;;5070335;28;20068;-77
2020/12/07 09:32:34;;;;;;;3.88;2.75;;;7.00;88.10;;;;;;5074924;28;20049;-76
2020/12/07 09:35:00;;;;;;;3.90;2.50;;;7.00;88.00;;;;;;5074386;28;20039;-76
2020/12/07 09:37:26;;;;;;;2.17;1.90;;;7.00;88.00;;;;;;5073601;28;20437;-77
2020/12/07 09:39:52;;;;;;;3.40;2.45;;;7.00;88.00;;;;;;5058848;28;20040;-77
2020/12/07 09:42:17;;;;;;;3.08;2.33;;;7.00;87.90;;;;;;5056651;28;20044;-78
2020/12/07 09:44:43;;;;;;;2.90;2.50;;;7.00;87.90;;;;;;5072417;28;20029;-76
2020/12/07 09:47:09;;;;;;;3.88;2.45;;;7.00;87.80;;;;;;5074259;28;20486;-77
2020/12/07 09:49:34;;;;;;;3.40;2.70;;;7.00;87.80;;;;;;5054740;28;20040;-78
2020/12/07 09:52:02;;;;;;;3.38;2.40;;;7.00;87.90;;;;;;5068622;28;20040;-79
2020/12/07 09:54:27;;;;;;;4.20;2.72;;;7.00;88.00;;;;;;5057348;28;20028;-82
2020/12/07 09:56:53;;;;;;;6.82;4.00;;;7.00;87.90;;;;;;5069738;28;20368;-80
2020/12/07 09:59:18;;;;;;;3.88;2.15;;;7.00;87.70;;;;;;5070851;28;20099;-82
2020/12/07 10:01:44;;;;;;;3.17;2.25;;;7.00;87.70;;;;;;5070474;28;20029;-77
2020/12/07 10:04:10;;;;;;;4.35;3.53;;;7.10;87.80;;;;;;5071686;28;20032;-78
2020/12/07 10:06:35;;;;;;;3.78;2.97;;;7.10;88.30;;;;;;5073453;28;20482;-78
2020/12/07 10:09:01;;;;;;;3.72;2.53;;;7.10;87.60;;;;;;5071854;28;20036;-77
2020/12/07 10:11:26;;;;;;;4.45;3.38;;;7.10;87.70;;;;;;5064911;28;20041;-79
2020/12/07 10:13:52;;;;;;;3.88;2.88;;;7.10;87.60;;;;;;5059610;28;20482;-80
2020/12/07 10:16:18;;;;;;;3.47;2.50;;;7.10;87.60;;;;;;5072377;28;20445;-78
2020/12/07 10:18:43;;;;;;;4.43;2.95;;;7.00;87.80;;;;;;5056280;28;20054;-79
2020/12/07 10:21:09;;;;;;;3.30;2.70;;;6.90;87.90;;;;;;5073620;28;20079;-78
2020/12/07 10:23:35;;;;;;;3.60;2.70;;;6.90;88.00;;;;;;5073646;28;20099;-77
2020/12/07 10:26:00;;;;;;;4.18;3.00;;;7.00;88.10;;;;;;5047908;28;20520;-77
2020/12/07 10:28:26;;;;;;;3.95;2.90;;;6.90;88.00;;;;;;5072871;28;20033;-78
2020/12/07 10:30:52;;;;;;;2.88;2.40;;;7.00;88.00;;;;;;5071159;28;20036;-78
2020/12/07 10:33:18;;;;;;;3.78;2.78;;;7.00;87.90;;;;;;5073181;28;20171;-81
2020/12/07 10:35:43;;;;;;;3.17;1.90;;;7.00;87.80;;;;;;5070154;28;20115;-74
2020/12/07 10:38:09;;;;;;;3.63;2.40;;;7.10;87.80;;;;;;5073057;28;20033;-77
2020/12/07 10:40:34;;;;;;;4.20;2.88;;;7.10;87.70;;;;;;5061393;28;20028;-77
2020/12/07 10:43:00;;;;;;;4.07;2.40;;;7.20;87.70;;;;;;5073315;28;20540;-78
2020/12/07 10:45:26;;;;;;;3.60;2.97;;;7.10;87.60;;;;;;5071629;28;20102;-77
2020/12/07 10:47:53;;;;;;;3.30;2.65;;;7.10;87.60;;;;;;5062693;28;20033;-75
2020/12/07 10:50:19;;;;;;;3.70;2.75;;;7.10;87.60;;;;;;5049218;28;20036;-76
2020/12/07 10:52:46;;;;;;;5.18;2.92;;;7.10;87.70;;;;;;5072063;28;20090;-80
2020/12/07 10:55:11;;;;;;;4.20;3.47;;;7.10;87.80;;;;;;5047405;28;20068;-75
2020/12/07 10:57:37;;;;;;;4.25;3.42;;;7.00;87.70;;;;;;5067642;28;20530;-76
2020/12/07 11:00:04;;;;;;;3.67;2.85;;;7.00;87.90;;;;;;5066893;28;20378;-77
2020/12/07 11:02:30;;;;;;;4.07;2.55;;;7.00;87.90;;;;;;5067972;28;20069;-77
2020/12/07 11:04:55;;;;;;;3.75;2.42;;;7.00;87.90;;;;;;5066638;28;20674;-76
2020/12/07 11:07:23;;;;;;;4.68;3.05;;;6.90;87.90;;;;;;5063611;28;20045;-77
2020/12/07 11:09:49;;;;;;;3.13;2.30;;;6.90;88.00;;;;;;5064949;28;20012;-76
2020/12/07 11:12:17;;;;;;;5.10;3.00;;;6.90;88.00;;;;;;5069528;28;20482;-77
2020/12/07 11:14:44;;;;;;;3.22;2.25;;;6.90;88.00;;;;;;5062032;28;20079;-77
2020/12/07 11:17:10;;;;;;;3.42;2.65;;;6.90;88.00;;;;;;5059359;28;20025;-78
2020/12/07 11:19:36;;;;;;;3.22;2.42;;;6.90;87.80;;;;;;5069532;28;20043;-77
2020/12/07 11:22:02;;;;;;;4.30;3.10;;;6.90;87.90;;;;;;5060927;28;20036;-78
2020/12/07 11:24:27;;;;;;;4.10;2.63;;;6.90;88.00;;;;;;5062720;28;20055;-76
2020/12/07 11:26:53;;;;;;;3.75;2.75;;;6.90;87.90;;;;;;5048436;28;20400;-78
2020/12/07 11:29:19;;;;;;;5.60;3.88;;;6.80;88.00;;;;;;5062915;28;20041;-78
2020/12/07 11:31:49;;;;;;;5.20;3.50;;;6.80;88.00;;;;;;5044205;28;20043;-76
2020/12/07 11:34:21;;;;;;;5.35;3.65;;;6.80;88.00;;;;;;5086848;28;20546;-78
2020/12/07 11:36:48;;;;;;;5.63;3.67;;;6.80;88.10;;;;;;5090619;28;20036;-78
2020/12/07 11:44:17;;;;;;;5.68;3.22;;;6.70;88.20;;;;;;5087404;28;20039;-74
2020/12/07 11:46:54;;;;;;;5.43;2.95;;;6.70;88.10;;;;;;5089105;28;20028;-75
2020/12/07 11:49:20;;;;;;;4.43;3.13;;;6.70;88.00;;;;;;5090728;28;20043;-74
2020/12/07 11:51:45;;;;;;;4.75;3.15;;;6.70;87.90;;;;;;5084279;28;20028;-75
2020/12/07 11:54:11;;;;;;;6.13;3.08;;;6.80;87.80;;;;;;5088856;28;20138;-75
2020/12/07 11:56:38;;;;;;;3.83;2.80;;;6.80;87.70;;;;;;5092205;28;20070;-75
2020/12/07 11:59:04;;;;;;;4.03;3.05;;;6.80;87.60;;;;;;5077527;28;20027;-77
2020/12/07 12:01:33;;;;;;;4.40;3.38;;;6.90;87.60;;;;;;5084655;28;20080;-76
2020/12/07 12:04:00;;;;;;;4.40;3.30;;;6.90;87.50;;;;;;5089341;28;20028;-76
2020/12/07 12:06:29;;;;;;;5.97;3.45;;;6.90;87.40;;;;;;5085255;28;20055;-75
2020/12/07 12:08:55;;;;;;;5.05;3.90;;;6.90;87.40;;;;;;5087468;28;20825;-77
2020/12/07 12:11:27;;;;;;;4.38;3.03;;;7.00;87.90;;;;;;5091646;28;20036;-75
2020/12/07 12:13:54;;;;;;;6.07;3.85;;;6.90;87.30;;;;;;5090297;28;20138;-75
2020/12/07 12:16:20;;;;;;;3.97;3.13;;;7.00;88.10;;;;;;5091237;28;20032;-74
2020/12/07 12:18:46;;;;;;;4.18;3.00;;;7.00;87.40;;;;;;5084193;28;20036;-76
2020/12/07 12:21:11;;;;;;;5.05;3.28;;;7.00;87.40;;;;;;5082944;28;20497;-75
2020/12/07 12:23:37;;;;;;;5.18;3.50;;;7.00;87.40;;;;;;5082654;28;20034;-76
2020/12/07 12:26:02;;;;;;;3.75;2.92;;;6.90;87.40;;;;;;5084840;28;20036;-76
2020/12/07 12:28:28;;;;;;;3.35;2.00;;;6.90;87.40;;;;;;5087282;28;20115;-74
2020/12/07 12:30:54;;;;;;;3.55;2.47;;;6.90;87.40;;;;;;5088394;28;20028;-74
2020/12/07 12:33:19;;;;;;;3.10;2.58;;;6.90;88.10;;;;;;5083478;28;20047;-75
2020/12/07 12:35:46;;;;;;;5.13;2.70;;;6.90;87.60;;;;;;5089282;28;20416;-75
2020/12/07 12:38:11;;;;;;;3.50;2.58;;;6.80;87.50;;;;;;5083692;28;20428;-74
2020/12/07 12:40:37;;;;;;;3.92;2.53;;;6.70;87.60;;;;;;5086557;28;20028;-74
2020/12/07 12:43:02;;;;;;;4.88;2.90;;;6.70;87.70;;;;;;5088806;28;20020;-76
2020/12/07 12:45:28;;;;;;;3.92;2.53;;;6.70;87.80;;;;;;5088128;28;20839;-75
2020/12/07 12:47:54;;;;;;;4.82;4.13;;;6.60;87.80;;;;;;5092616;28;20103;-74
2020/12/07 12:50:19;;;;;;;3.83;2.67;;;6.60;87.80;;;;;;5087992;28;20094;-74
2020/12/07 12:52:45;;;;;;;3.17;2.30;;;6.60;87.80;;;;;;5089268;28;20051;-75
2020/12/07 12:55:12;;;;;;;4.53;2.75;;;6.60;87.70;;;;;;5089791;28;20039;-74
2020/12/07 12:57:37;;;;;;;4.63;2.60;;;6.60;87.80;;;;;;5092360;28;20032;-75
2020/12/07 13:00:06;;;;;;;4.35;2.70;;;6.60;87.80;;;;;;5090033;28;20051;-76
2020/12/07 13:02:32;;;;;;;4.00;2.80;;;6.60;87.80;;;;;;5090961;28;20040;-77
2020/12/07 13:04:57;;;;;;;2.78;2.00;;;6.70;87.80;;;;;;5090636;28;20062;-75
2020/12/07 13:07:23;;;;;;;3.92;2.30;;;6.70;87.80;;;;;;5089284;28;20062;-74
2020/12/07 13:09:49;;;;;;;4.05;2.58;;;6.70;87.70;;;;;;5075786;28;20025;-76
2020/12/07 13:12:14;;;;;;;4.32;2.33;;;6.60;87.70;;;;;;5065507;28;20560;-76
2020/12/07 13:14:40;;;;;;;3.03;2.40;;;6.60;87.80;;;;;;5071330;28;20465;-74
2020/12/07 13:17:09;;;;;;;4.03;2.35;;;6.60;87.80;;;;;;5095928;28;20465;-75
2020/12/07 13:19:34;;;;;;;3.70;2.45;;;6.60;87.80;;;;;;5095448;28;20044;-74
2020/12/07 13:22:26;;;;;;;4.10;2.45;;;6.60;87.70;;;;;;5095034;28;20042;-76
2020/12/07 13:24:58;;;;;;;2.45;2.15;;;6.60;87.60;;;;;;5091097;28;20480;-77
2020/12/07 13:29:49;;;;;;;2.35;1.80;;;6.60;87.60;;;;;;5090353;28;20130;-74
2020/12/07 13:32:15;;;;;;;3.78;3.10;;;6.60;87.60;;;;;;5091080;28;20047;-74